• Join FlightAware (Why Join?)
  • Login
  • US Flag 
03:22PM EDT


 

Airport Tracker/Info


-or-


 

Live Flight TrackerFlight Track Log ✈ SWA385 ✈ 08-Jul-2013 ✈ KIAD - KMDW

Flight Track Log - Related Links

Times and Time Zones

All times are in EDT time to prevent confusion due to time zone crossing. See the SWA385 flight status page for this flight to view local times or setup timezone preferences in your user account.

Time Position Orientation Groundspeed Altitude Reporting Facility
EDT Latitude Longitude Course Direction KTS MPH feet Rate Location/Type
05:07PM 38.9167 -77.4500 218° Southwest 169 194 1,700  Level Potomac TRACON
05:08PM 38.8667 -77.5000 218° Southwest 206 237 3,900 2,400 Climbing Potomac TRACON
05:09PM 38.8167 -77.5500 218° Southwest 255 293 6,600 2,940 Climbing Potomac TRACON
05:10PM 38.7833 -77.6333 243° Southwest 264 304 9,600 2,940 Climbing Potomac TRACON
05:11PM 38.7736 -77.7164 261° West 290 334 12,400 2,640 Climbing Washington Center
05:12PM 38.8181 -77.8083 302° West 296 341 15,100 2,700 Climbing Washington Center
05:13PM 38.8658 -77.9164 300° West 317 365 17,900 2,640 Climbing Washington Center
05:14PM 38.9031 -78.0378 292° West 349 402 20,500 2,820 Climbing Washington Center
05:15PM 38.9422 -78.1617 292° West 368 423 23,500 2,700 Climbing Washington Center
05:16PM 38.9622 -78.2961 281° West 381 438 25,900 1,980 Climbing Washington Center
05:17PM 38.9672 -78.4456 273° West 400 460 27,500 1,500 Climbing Washington Center
05:18PM 38.9717 -78.5981 272° West 418 481 29,000 1,380 Climbing Washington Center
05:19PM 38.9758 -78.7611 272° West 440 506 30,300 1,620 Climbing Washington Center
05:20PM 38.9819 -78.9269 273° West 463 533 32,300 2,220 Climbing Washington Center
05:21PM 38.9856 -79.0875 272° West 463 533 34,900 2,160 Climbing Washington Center
05:22PM 38.9892 -79.2450 272° West 451 519 36,800 1,380 Climbing Washington Center
05:23PM 38.9928 -79.4003 272° West 445 512 37,700 840 Climbing Washington Center
05:24PM 38.9961 -79.5553 272° West 439 505 38,500 660 Climbing Washington Center
05:26PM 39.0383 -79.9375 278° West 426 490 40,000 420 Climbing Indianapolis Center
05:27PM 39.0900 -80.0672 297° West 422 486 40,000  Level Indianapolis Center
05:28PM 39.1481 -80.2119 297° West 420 483 40,000  Level Indianapolis Center
05:29PM 39.2022 -80.3458 298° West 421 484 40,000  Level Indianapolis Center
05:30PM 39.2550 -80.4803 297° West 422 486 40,000  Level Indianapolis Center
05:31PM 39.3097 -80.6153 298° West 426 490 40,000  Level Indianapolis Center
05:33PM 39.3625 -80.7506 297° West 424 488 40,000  Level Indianapolis Center
05:34PM 39.4164 -80.8897 297° West 433 498 40,000  Level Indianapolis Center
05:35PM 39.4708 -81.0278 297° West 432 497 40,000  Level Indianapolis Center
05:36PM 39.5344 -81.1922 297° West 427 491 40,000  Level Indianapolis Center
05:37PM 39.5850 -81.3253 296° West 416 479 40,000  Level Indianapolis Center
05:38PM 39.6367 -81.4586 297° West 415 478 40,000  Level Indianapolis Center
05:39PM 39.6872 -81.5922 296° West 414 476 40,000  Level Indianapolis Center
05:40PM 39.7406 -81.7325 296° West 415 478 40,000  Level Indianapolis Center
05:41PM 39.7922 -81.8658 297° West 411 473 40,000  Level Indianapolis Center
05:42PM 39.8422 -81.9992 296° West 407 468 40,000  Level Indianapolis Center
05:43PM 39.8908 -82.1314 296° West 403 464 40,000  Level Indianapolis Center
05:44PM 39.9500 -82.2864 297° West 407 468 40,000  Level Indianapolis Center
05:45PM 39.9992 -82.4194 296° West 405 466 40,000  Level Indianapolis Center
05:46PM 40.0494 -82.5547 296° West 409 471 40,000  Level Indianapolis Center
05:47PM 40.0989 -82.6892 296° West 409 471 40,000  Level Indianapolis Center
05:48PM 40.1500 -82.8250 296° West 413 475 40,000  Level Indianapolis Center
05:49PM 40.1983 -82.9619 295° West 415 478 40,000  Level Indianapolis Center
05:50PM 40.2492 -83.0997 296° West 419 482 40,000  Level Indianapolis Center
05:51PM 40.3078 -83.2625 295° West 423 487 40,000  Level Indianapolis Center
05:52PM 40.3583 -83.4033 295° West 425 489 40,000 -120 Level Indianapolis Center
05:53PM 40.4086 -83.5442 295° West 426 490 39,800 -660 Descending Indianapolis Center
05:54PM 40.4581 -83.6819 295° West 418 481 38,700 -1,020 Descending Indianapolis Center
05:55PM 40.5069 -83.8214 295° West 418 481 37,800 -900 Descending Indianapolis Center
05:56PM 40.5564 -83.9608 295° West 419 482 36,900 -1,080 Descending Indianapolis Center
05:57PM 40.6056 -84.1011 295° West 419 482 35,600 -1,860 Descending Indianapolis Center
05:58PM 40.6622 -84.2625 295° West 415 478 33,200 -2,340 Descending Indianapolis Center
05:59PM 40.7100 -84.4019 294° West 416 479 30,900 -1,560 Descending Indianapolis Center
06:00PM 40.7578 -84.5361 295° West 405 466 30,000 -480 Descending Indianapolis Center
06:01PM 40.8022 -84.6697 294° West 396 456 30,000  Level Indianapolis Center
06:02PM 40.8486 -84.8028 295° West 397 457 30,000 -60 Level Indianapolis Center
06:03PM 40.8981 -84.9469 294° West 396 456 29,900 -540 Descending Chicago Center
06:04PM 40.9439 -85.0817 294° West 398 458 28,900 -960 Descending Chicago Center
06:05PM 41.0033 -85.2039 303° West 406 467 28,000 -960 Descending Chicago Center
06:06PM 41.0981 -85.2797 329° Northwest 400 460 27,000 -960 Descending Chicago Center
06:08PM 41.1792 -85.3772 318° Northwest 393 452 26,000 -840 Descending Chicago Center
06:09PM 41.2442 -85.4981 306° West 400 460 25,300 -1,200 Descending Chicago Center
06:10PM 41.3058 -85.6150 305° West 387 445 23,600 -1,560 Descending Chicago Center
06:11PM 41.3794 -85.7539 305° West 382 440 22,100 -1,680 Descending Chicago Center
06:12PM 41.4389 -85.8669 305° West 374 430 20,200 -2,160 Descending Chicago Center
06:13PM 41.4636 -85.9986 284° West 364 419 17,700 -2,160 Descending Chicago Center
06:14PM 41.4842 -86.1281 282° West 360 414 15,800 -2,160 Descending Chicago Center
06:15PM 41.5011 -86.2522 280° West 345 397 13,300 -2,220 Descending Chicago Center
06:16PM 41.5203 -86.3711 282° West 331 381 11,300 -1,500 Descending Chicago Center
06:17PM 41.5219 -86.4850 271° West 308 354 10,300 -600 Descending Chicago Center
06:18PM 41.5208 -86.6175 269° West 294 338 10,100 -540 Descending Chicago Center
06:19PM 41.5214 -86.7106 270° West 275 316 9,300 -840 Descending Chicago Center
06:20PM 41.5194 -86.8061 268° West 261 300 8,400 -1,020 Descending Chicago Center
06:21PM 41.5181 -86.9219 269° West 261 300 7,200 -1,080 Descending Chicago Center
06:22PM 41.5183 -87.0164 270° West 258 297 6,200 -600 Descending Chicago Center
06:23PM 41.5172 -87.1056 269° West 247 284 6,000 -120 Descending Chicago Center
06:24PM 41.5172 -87.1956 270° West 244 281 6,000  Level Chicago Center
06:25PM 41.5150 -87.2858 268° West 245 282 6,000 -540 Level Chicago Center
06:26PM 41.5358 -87.3911 285° West 247 284 5,000 -540 Descending Chicago Center
06:27PM 41.5700 -87.4556 305° West 218 251 5,000  Level Chicago Center
06:28PM 41.6042 -87.4981 317° Northwest 181 208 5,000 -180 Level Chicago Center
06:29PM 41.6350 -87.5428 313° West 169 194 4,700 -600 Descending Chicago Center
06:30PM 41.6675 -87.5881 314° West 169 194 3,800 -1,080 Descending Chicago Center
06:31PM 41.7075 -87.6431 314° West 171 197 2,500 -1,020 Descending Chicago Center
06:32PM 41.7439 -87.6792 323° Northwest 177 204 1,800 -540 Descending Chicago Center
06:33PM 41.7925 -87.6778 North 177 204 1,500 -300 Descending Chicago Center
06:34PM 41.8144 -87.7097 313° West 154 177 1,200 -300 Descending Chicago Center
06:35PM 41.7847 -87.7611 232° Southwest 150 173 1,000 -240 Descending Chicago Center
06:37PM 41.7833 -87.7500 340° North  Level FlightAware Approximate